Terminal Aerodrome Forecast
Issued by NWS

Home | Current Version | Previous Version | Text Only | Print | Product List | Glossary On
Versions: 1 2 3 4 5 6 7 8 9 10 11 12 13
329
FTUS42 KTAE 011007 AAA
TAFVLD
TAF AMD
KVLD 011007Z 0110/0206 00000KT P6SM SKC WS003/02030KT
     FM011400 05004KT P6SM SKC=

USA.gov is the U.S. government's official web portal to all federal, state and local government web resources and services.